KEKO/EKO METAR and TAF weather

Enter ICAO airport designator
Station Type Date Time Source
KEKO METAR 2020/09/22 18:56 UTC NOAA

KEKO 221856Z AUTO 20007KT 9SM CLR 24/M03 A3015 RMK AO2 SLP168 T02391028


Station Type Date Time Source
KEKO Decoded METAR 2020/09/22 18:56 UTC NOAA

ELKO REGIONAL AIRPORT, NV, United States (KEKO) 40-50N 115-47W 1547M
Sep 22, 2020 - 02:56 PM EDT / 2020.09.22 1856 UTC
Wind: from the SSW (200 degrees) at 8 MPH (7 KT):0
Visibility: 9 mile(s):0
Sky conditions: clear
Temperature: 75.0 F (23.9 C)
Dew Point: 27.0 F (-2.8 C)
Relative Humidity: 16%
Pressure (altimeter): 30.15 in. Hg (1020 hPa)
ob: KEKO 221856Z AUTO 20007KT 9SM CLR 24/M03 A3015 RMK AO2 SLP168 T02391028
cycle: 19

Station Type Date Time Source
KEKO TAF 2020/09/22 18:22 UTC NOAA

TAF KEKO 221720Z 2218/2318 22010G20KT 6SM HZ SCT250
FM222000 23010G20KT 6SM HZ BKN200
FM230200 VRB06KT P6SM BKN200

Example: see airport list